Time;durP1;ratioP1;P1;durP2;ratioP2;P2;SDS_P1;SDS_P2;PMS_P1;PMS_P2;Temp;Humidity;BMP_temperature;BMP_pressure;BME280_temperature;BME280_humidity;BME280_pressure;Samples;Min_cycle;Max_cycle;Signal;HPM_P1;HPM_P2
2022/04/14 00:00:17;;;;;;;0.40;0.40;;;10.90;99.90;;;;;;5035049;28;20421;-69
2022/04/14 00:03:05;;;;;;;0.50;0.50;;;10.90;99.90;;;;;;5034952;28;20453;-71
2022/04/14 00:05:54;;;;;;;0.40;0.40;;;10.80;99.90;;;;;;5037775;28;20437;-71
2022/04/14 00:08:42;;;;;;;0.40;0.40;;;10.80;99.90;;;;;;5036087;28;20512;-71
2022/04/14 00:11:31;;;;;;;1.90;1.80;;;10.60;99.90;;;;;;5034091;28;20949;-72
2022/04/14 00:14:19;;;;;;;0.40;0.40;;;10.70;99.90;;;;;;5037058;28;20860;-70
2022/04/14 00:17:08;;;;;;;0.50;0.50;;;10.70;99.90;;;;;;5036156;28;20425;-69
2022/04/14 00:19:56;;;;;;;0.40;0.40;;;10.70;99.90;;;;;;5036799;28;20472;-70
2022/04/14 00:22:44;;;;;;;0.40;0.40;;;10.60;99.90;;;;;;5035060;28;20507;-71
2022/04/14 00:25:32;;;;;;;0.50;0.50;;;10.50;99.90;;;;;;5037387;28;20487;-73
2022/04/14 00:28:20;;;;;;;0.40;0.40;;;10.50;99.90;;;;;;5035497;28;20471;-70
2022/04/14 00:31:08;;;;;;;0.40;0.40;;;10.50;99.90;;;;;;5035931;28;20421;-71
2022/04/14 00:33:58;;;;;;;0.40;0.40;;;10.40;99.90;;;;;;5037296;28;20428;-73
2022/04/14 00:36:46;;;;;;;0.40;0.40;;;10.50;99.90;;;;;;5036001;28;20454;-69
2022/04/14 00:39:34;;;;;;;0.40;0.40;;;10.40;99.90;;;;;;5035698;28;20504;-70
2022/04/14 00:42:22;;;;;;;0.40;0.40;;;10.30;99.90;;;;;;5034005;28;20474;-70
2022/04/14 00:45:10;;;;;;;0.40;0.40;;;10.30;99.90;;;;;;5035573;28;20460;-69
2022/04/14 00:47:59;;;;;;;0.40;0.40;;;10.30;99.90;;;;;;5036558;28;20433;-70
2022/04/14 00:50:48;;;;;;;0.40;0.40;;;10.30;99.90;;;;;;5033902;28;20484;-70
2022/04/14 00:53:37;;;;;;;0.40;0.40;;;10.30;99.90;;;;;;5034877;28;20460;-72
2022/04/14 00:56:25;;;;;;;0.50;0.50;;;10.10;99.90;;;;;;5034971;28;20467;-72
2022/04/14 00:59:14;;;;;;;0.40;0.40;;;10.20;99.90;;;;;;5033121;28;20973;-70
2022/04/14 01:02:02;;;;;;;0.40;0.40;;;10.20;99.90;;;;;;5034045;28;20441;-70
2022/04/14 01:04:51;;;;;;;0.40;0.40;;;10.10;99.90;;;;;;5034416;28;20483;-69
2022/04/14 01:07:42;;;;;;;0.40;0.40;;;10.10;99.90;;;;;;5034893;28;20421;-69
2022/04/14 01:10:31;;;;;;;0.40;0.40;;;10.10;99.90;;;;;;5035445;28;20809;-71
2022/04/14 01:13:20;;;;;;;0.40;0.40;;;10.10;99.90;;;;;;5033465;28;20445;-72
2022/04/14 01:16:08;;;;;;;0.47;0.47;;;10.00;99.90;;;;;;5035690;28;20432;-70
2022/04/14 01:18:56;;;;;;;0.40;0.40;;;9.90;99.90;;;;;;5033868;28;20466;-73
2022/04/14 01:21:51;;;;;;;0.50;0.50;;;10.00;99.90;;;;;;5033860;28;20476;-71
2022/04/14 01:24:41;;;;;;;0.40;0.40;;;10.00;99.90;;;;;;5032797;28;21001;-70
2022/04/14 01:27:30;;;;;;;0.40;0.40;;;10.00;99.90;;;;;;5033878;28;20425;-70
2022/04/14 01:30:18;;;;;;;0.40;0.40;;;9.90;99.90;;;;;;5032755;28;20413;-70
2022/04/14 01:33:06;;;;;;;0.40;0.40;;;9.90;99.90;;;;;;5034090;28;20453;-70
2022/04/14 01:35:55;;;;;;;0.50;0.50;;;9.90;99.90;;;;;;5034593;28;20457;-70
2022/04/14 01:38:43;;;;;;;0.50;0.50;;;9.90;99.90;;;;;;5026986;28;20465;-69
2022/04/14 01:41:33;;;;;;;0.50;0.50;;;9.90;99.90;;;;;;5034720;28;20425;-69
2022/04/14 01:44:21;;;;;;;0.40;0.40;;;9.80;99.90;;;;;;5033876;28;20425;-70
2022/04/14 01:47:09;;;;;;;0.40;0.40;;;9.90;99.90;;;;;;5033929;28;20464;-70
2022/04/14 01:49:57;;;;;;;0.40;0.40;;;9.90;99.90;;;;;;5032767;28;20457;-71
2022/04/14 01:52:45;;;;;;;0.50;0.50;;;9.90;99.90;;;;;;5033610;28;20989;-71
2022/04/14 01:55:33;;;;;;;0.40;0.40;;;9.90;99.90;;;;;;5035003;28;20429;-71
2022/04/14 01:58:23;;;;;;;0.40;0.40;;;9.90;99.90;;;;;;5034314;28;20476;-76
2022/04/14 02:01:11;;;;;;;0.50;0.50;;;9.90;99.90;;;;;;5033007;28;20929;-69
2022/04/14 02:04:01;;;;;;;0.50;0.50;;;9.90;99.90;;;;;;5034294;28;20519;-71
2022/04/14 02:06:49;;;;;;;1.37;1.37;;;9.90;99.90;;;;;;5034970;28;20516;-72
2022/04/14 02:09:37;;;;;;;0.60;0.60;;;10.00;99.90;;;;;;5036069;28;20487;-72
2022/04/14 02:12:26;;;;;;;0.60;0.60;;;9.90;99.90;;;;;;5040700;28;20444;-74
2022/04/14 02:15:15;;;;;;;0.80;0.80;;;10.00;99.90;;;;;;5039256;28;20500;-73
2022/04/14 02:18:03;;;;;;;1.67;1.60;;;10.10;99.90;;;;;;5041178;28;20436;-72
2022/04/14 02:20:51;;;;;;;0.40;0.40;;;10.00;99.90;;;;;;5040802;28;20472;-70
2022/04/14 02:23:39;;;;;;;0.40;0.40;;;10.10;99.90;;;;;;5040554;28;20445;-72
2022/04/14 02:26:28;;;;;;;0.73;0.53;;;10.20;99.90;;;;;;5040345;28;20478;-70
2022/04/14 02:29:16;;;;;;;0.40;0.40;;;10.20;99.90;;;;;;5041079;28;20500;-72
2022/04/14 02:32:07;;;;;;;0.40;0.40;;;10.20;99.90;;;;;;5041307;28;20531;-70
2022/04/14 02:34:55;;;;;;;3.37;3.07;;;10.20;99.90;;;;;;5040227;28;20421;-72
2022/04/14 02:37:43;;;;;;;8.63;7.73;;;10.10;99.90;;;;;;5041198;28;20433;-71
2022/04/14 02:40:31;;;;;;;0.90;0.90;;;10.10;99.90;;;;;;5041463;28;20702;-71
2022/04/14 02:43:21;;;;;;;1.27;1.17;;;10.10;99.90;;;;;;5039272;28;20444;-71
2022/04/14 02:46:09;;;;;;;0.50;0.50;;;10.00;99.90;;;;;;5040604;28;20424;-70
2022/04/14 02:48:58;;;;;;;0.50;0.50;;;10.00;99.90;;;;;;5038405;28;20955;-71
2022/04/14 02:51:46;;;;;;;3.07;2.87;;;10.00;99.90;;;;;;5040209;28;20448;-70
2022/04/14 02:54:37;;;;;;;2.20;1.13;;;10.00;99.90;;;;;;5038434;28;20460;-70
2022/04/14 02:57:25;;;;;;;2.03;1.33;;;10.00;99.90;;;;;;5039304;28;20437;-70
2022/04/14 03:00:14;;;;;;;0.40;0.40;;;10.00;99.90;;;;;;5038975;28;20468;-72
2022/04/14 03:03:02;;;;;;;0.83;0.83;;;10.00;99.90;;;;;;5038010;28;20464;-70
2022/04/14 03:05:52;;;;;;;0.50;0.50;;;9.90;99.90;;;;;;5037560;28;20802;-70
2022/04/14 03:08:41;;;;;;;7.80;5.00;;;10.00;99.90;;;;;;5037902;28;20425;-70
2022/04/14 03:11:29;;;;;;;1.53;1.37;;;9.90;99.90;;;;;;5037945;28;20458;-70
2022/04/14 03:14:17;;;;;;;0.53;0.53;;;10.00;99.90;;;;;;5038766;28;20456;-70
2022/04/14 03:17:05;;;;;;;0.90;0.83;;;10.00;99.90;;;;;;5037776;28;20426;-73
2022/04/14 03:19:54;;;;;;;1.47;1.37;;;10.10;99.90;;;;;;5035629;28;20472;-71
2022/04/14 03:22:43;;;;;;;0.40;0.40;;;10.20;99.90;;;;;;5035594;28;20457;-71
2022/04/14 03:25:31;;;;;;;0.50;0.50;;;10.20;99.90;;;;;;5037658;28;20516;-71
2022/04/14 03:28:19;;;;;;;0.70;0.70;;;10.30;99.90;;;;;;5037342;28;20425;-71
2022/04/14 03:31:08;;;;;;;0.50;0.50;;;10.30;99.90;;;;;;5037891;28;20504;-72
2022/04/14 03:33:56;;;;;;;1.90;1.43;;;10.30;99.90;;;;;;5037720;28;20429;-72
2022/04/14 03:36:44;;;;;;;0.60;0.60;;;10.40;99.90;;;;;;5038150;28;20520;-70
2022/04/14 03:39:33;;;;;;;1.73;0.97;;;10.30;99.90;;;;;;5039517;28;20929;-71
2022/04/14 03:42:21;;;;;;;0.57;0.57;;;10.40;99.90;;;;;;5039282;28;20461;-71
2022/04/14 03:45:10;;;;;;;0.50;0.50;;;10.50;99.90;;;;;;5038099;28;20484;-70
2022/04/14 03:47:58;;;;;;;0.40;0.40;;;10.50;99.90;;;;;;5037490;28;20429;-72
2022/04/14 03:50:46;;;;;;;0.50;0.50;;;10.50;99.90;;;;;;5037094;28;20487;-70
2022/04/14 03:53:34;;;;;;;2.20;2.00;;;10.50;99.90;;;;;;5036730;28;20979;-71
2022/04/14 03:56:23;;;;;;;0.50;0.50;;;10.50;99.90;;;;;;5037114;28;20468;-70
2022/04/14 03:59:13;;;;;;;1.17;1.17;;;10.40;99.90;;;;;;5037400;28;20501;-70
2022/04/14 04:02:01;;;;;;;0.70;0.70;;;10.30;99.90;;;;;;5036151;28;20588;-71
2022/04/14 04:04:49;;;;;;;0.43;0.43;;;10.40;99.90;;;;;;5037032;28;20432;-71
2022/04/14 04:07:37;;;;;;;0.97;0.97;;;10.40;99.90;;;;;;5037801;28;20428;-71
2022/04/14 04:10:25;;;;;;;0.50;0.50;;;10.40;99.90;;;;;;5036960;28;20830;-73
2022/04/14 04:13:15;;;;;;;0.43;0.43;;;10.40;99.90;;;;;;5035292;28;20445;-71
2022/04/14 04:16:03;;;;;;;0.40;0.40;;;10.40;99.90;;;;;;5032489;28;20540;-71
2022/04/14 04:18:52;;;;;;;0.50;0.50;;;10.40;99.90;;;;;;5038443;28;20768;-72
2022/04/14 04:21:40;;;;;;;0.50;0.50;;;10.40;99.90;;;;;;5036496;28;20788;-71
2022/04/14 04:24:28;;;;;;;0.60;0.60;;;10.40;99.90;;;;;;5038472;28;20791;-69
2022/04/14 04:27:16;;;;;;;0.40;0.40;;;10.40;99.90;;;;;;5039155;28;21159;-70
2022/04/14 04:30:07;;;;;;;0.40;0.40;;;10.50;99.90;;;;;;5037131;28;20500;-73
2022/04/14 04:32:55;;;;;;;0.40;0.40;;;10.60;99.90;;;;;;5037898;28;20452;-71
2022/04/14 04:35:43;;;;;;;0.40;0.40;;;10.70;99.90;;;;;;5018609;28;20418;-71
2022/04/14 04:38:32;;;;;;;0.57;0.57;;;10.80;99.90;;;;;;5017596;28;20521;-71
2022/04/14 04:41:20;;;;;;;0.50;0.50;;;10.90;99.90;;;;;;5018270;28;20462;-70
2022/04/14 04:44:09;;;;;;;0.40;0.40;;;11.00;99.90;;;;;;5018090;28;20431;-72
2022/04/14 04:46:58;;;;;;;0.40;0.40;;;10.90;99.90;;;;;;5017603;28;20434;-71
2022/04/14 04:49:47;;;;;;;0.40;0.40;;;11.00;99.90;;;;;;5016780;28;20438;-70
2022/04/14 04:52:35;;;;;;;0.50;0.50;;;11.10;99.90;;;;;;5017471;28;20488;-70
2022/04/14 04:55:24;;;;;;;0.50;0.50;;;11.10;99.90;;;;;;5017434;28;20421;-71
2022/04/14 04:58:12;;;;;;;0.40;0.40;;;11.10;99.90;;;;;;5017671;28;20919;-70
2022/04/14 05:01:00;;;;;;;0.40;0.40;;;11.10;99.90;;;;;;5017270;28;20520;-70
2022/04/14 05:03:50;;;;;;;0.40;0.40;;;11.20;99.90;;;;;;5017416;28;20540;-70
2022/04/14 05:06:38;;;;;;;2.20;2.10;;;11.20;99.90;;;;;;5015863;28;20434;-70
2022/04/14 05:09:26;;;;;;;0.40;0.40;;;11.20;99.90;;;;;;5016743;28;20426;-70
2022/04/14 05:12:14;;;;;;;0.50;0.50;;;11.20;99.90;;;;;;5016916;28;20440;-71
2022/04/14 05:15:02;;;;;;;0.50;0.50;;;11.30;99.90;;;;;;5015919;28;20433;-71
2022/04/14 05:17:50;;;;;;;0.50;0.50;;;11.30;99.90;;;;;;5017385;28;20430;-72
2022/04/14 05:20:42;;;;;;;0.40;0.40;;;11.40;99.90;;;;;;5017247;28;20469;-71
2022/04/14 05:23:30;;;;;;;0.90;0.90;;;11.40;99.90;;;;;;5016649;28;20446;-72
2022/04/14 05:26:18;;;;;;;0.50;0.50;;;11.40;99.90;;;;;;5017322;28;20462;-71
2022/04/14 05:29:07;;;;;;;0.40;0.40;;;11.60;99.90;;;;;;5017350;28;20947;-71
2022/04/14 05:31:55;;;;;;;0.50;0.50;;;11.60;99.90;;;;;;5018263;28;20470;-71
2022/04/14 05:34:43;;;;;;;0.90;0.70;;;11.60;99.90;;;;;;5018357;28;20848;-72
2022/04/14 05:37:33;;;;;;;1.13;1.13;;;11.60;99.90;;;;;;5018795;28;20927;-70
2022/04/14 05:40:21;;;;;;;0.40;0.40;;;11.60;99.90;;;;;;5016775;28;20446;-70
2022/04/14 05:43:14;;;;;;;0.60;0.60;;;11.50;99.90;;;;;;5016784;28;20446;-71
2022/04/14 05:46:03;;;;;;;0.83;0.83;;;11.60;99.90;;;;;;5017906;28;20438;-70
2022/04/14 05:48:51;;;;;;;0.40;0.40;;;11.60;99.90;;;;;;5039329;28;20413;-72
2022/04/14 05:51:39;;;;;;;0.50;0.50;;;11.60;99.90;;;;;;5039228;28;20464;-74
2022/04/14 05:54:29;;;;;;;0.40;0.40;;;11.60;99.90;;;;;;5037634;28;20433;-72
2022/04/14 05:57:17;;;;;;;0.50;0.50;;;11.80;99.90;;;;;;5039147;28;20432;-71
2022/04/14 06:00:07;;;;;;;0.77;0.77;;;11.70;99.90;;;;;;5038241;28;20784;-71
2022/04/14 06:02:56;;;;;;;4.87;1.43;;;11.80;99.90;;;;;;5036868;28;20563;-71
2022/04/14 06:05:45;;;;;;;0.40;0.40;;;11.80;99.90;;;;;;5037471;28;20425;-73
2022/04/14 06:08:33;;;;;;;0.50;0.50;;;11.80;99.90;;;;;;5037684;28;21000;-72
2022/04/14 06:11:22;;;;;;;0.47;0.47;;;11.80;99.90;;;;;;5035548;28;20468;-72
2022/04/14 06:14:10;;;;;;;0.50;0.50;;;11.80;99.90;;;;;;5038085;28;20483;-71
2022/04/14 06:16:58;;;;;;;0.40;0.40;;;11.80;99.90;;;;;;5037956;28;20441;-73
2022/04/14 06:19:47;;;;;;;1.23;1.07;;;11.90;99.90;;;;;;5036837;28;20437;-73
2022/04/14 06:22:38;;;;;;;0.50;0.50;;;11.90;99.90;;;;;;5037971;28;20475;-72
2022/04/14 06:25:26;;;;;;;0.40;0.40;;;12.00;99.90;;;;;;5036607;28;20507;-72
2022/04/14 06:28:16;;;;;;;0.50;0.50;;;12.10;99.90;;;;;;5039047;28;20807;-71
2022/04/14 06:31:04;;;;;;;0.60;0.60;;;12.20;99.90;;;;;;5037038;28;20426;-71
2022/04/14 06:33:52;;;;;;;0.80;0.80;;;12.30;99.90;;;;;;5041828;28;20544;-71
2022/04/14 06:36:40;;;;;;;0.80;0.80;;;12.40;99.90;;;;;;5040335;28;20560;-69
2022/04/14 06:39:29;;;;;;;0.40;0.40;;;12.50;99.90;;;;;;5047842;28;20464;-70
2022/04/14 06:42:17;;;;;;;0.50;0.50;;;12.50;99.90;;;;;;5039676;28;21056;-70
2022/04/14 06:45:08;;;;;;;0.40;0.40;;;12.60;99.90;;;;;;5038432;28;20429;-72
2022/04/14 06:47:56;;;;;;;1.13;0.60;;;12.70;99.90;;;;;;5038448;28;20452;-70
2022/04/14 06:50:44;;;;;;;4.00;1.77;;;12.80;99.90;;;;;;5038846;28;20460;-70
2022/04/14 06:53:32;;;;;;;0.40;0.40;;;12.90;99.90;;;;;;5037697;28;20456;-73
2022/04/14 06:56:20;;;;;;;2.80;2.70;;;13.10;99.90;;;;;;5038118;28;20429;-70
2022/04/14 06:59:09;;;;;;;0.93;0.93;;;13.20;99.90;;;;;;5043036;28;20459;-74
2022/04/14 07:01:58;;;;;;;0.50;0.50;;;13.30;99.90;;;;;;5041481;28;20902;-72
2022/04/14 07:04:46;;;;;;;0.40;0.40;;;13.40;99.90;;;;;;5041686;28;20457;-70
2022/04/14 07:07:35;;;;;;;1.13;1.10;;;13.50;99.90;;;;;;5039519;28;20433;-71
2022/04/14 07:10:23;;;;;;;0.50;0.50;;;13.60;99.90;;;;;;5038613;28;20460;-70
2022/04/14 07:13:11;;;;;;;0.40;0.40;;;13.60;99.90;;;;;;5038688;28;20443;-71
2022/04/14 07:16:00;;;;;;;0.57;0.57;;;13.50;99.90;;;;;;5040450;28;21083;-72
2022/04/14 07:18:49;;;;;;;0.50;0.50;;;13.60;99.90;;;;;;5039752;28;20429;-72
2022/04/14 07:21:37;;;;;;;2.30;2.10;;;13.80;99.90;;;;;;5039394;28;20465;-74
2022/04/14 07:24:25;;;;;;;1.47;1.37;;;13.80;99.90;;;;;;5040659;28;20433;-74
2022/04/14 07:27:14;;;;;;;0.40;0.40;;;14.00;99.90;;;;;;5040179;28;20432;-73
2022/04/14 07:30:02;;;;;;;3.70;3.40;;;14.10;99.90;;;;;;5040183;28;20476;-70
2022/04/14 07:32:50;;;;;;;1.10;1.10;;;14.30;99.90;;;;;;5036675;28;20441;-69
2022/04/14 07:35:40;;;;;;;1.17;1.07;;;14.40;99.90;;;;;;5038139;28;20472;-75
2022/04/14 07:38:28;;;;;;;0.80;0.80;;;14.40;99.90;;;;;;5039488;28;20699;-69
2022/04/14 07:41:16;;;;;;;0.40;0.40;;;14.40;99.90;;;;;;5038197;28;20421;-71
2022/04/14 07:44:05;;;;;;;0.80;0.80;;;14.50;99.90;;;;;;5039095;28;20201;-72
2022/04/14 07:46:53;;;;;;;0.60;0.60;;;14.60;99.90;;;;;;5038144;28;20425;-69
2022/04/14 07:49:41;;;;;;;0.40;0.40;;;14.70;99.90;;;;;;5041539;28;20480;-72
2022/04/14 07:52:31;;;;;;;0.50;0.50;;;14.70;99.90;;;;;;5040011;28;20282;-72
2022/04/14 07:55:20;;;;;;;1.73;1.63;;;14.80;99.90;;;;;;5042781;28;20229;-69
2022/04/14 07:58:09;;;;;;;0.40;0.40;;;15.00;99.90;;;;;;5040474;28;20346;-72
2022/04/14 08:00:58;;;;;;;0.80;0.80;;;15.10;99.90;;;;;;5042038;28;20206;-71
2022/04/14 08:03:47;;;;;;;1.00;0.87;;;15.20;99.90;;;;;;5039376;28;20745;-69
2022/04/14 08:06:35;;;;;;;0.80;0.80;;;15.30;99.90;;;;;;5040943;28;20214;-70
2022/04/14 08:09:25;;;;;;;2.63;2.57;;;15.50;99.90;;;;;;5039355;28;20197;-69
2022/04/14 08:12:14;;;;;;;1.60;0.97;;;15.50;99.90;;;;;;5039268;28;20218;-72
2022/04/14 08:15:02;;;;;;;0.50;0.50;;;15.60;99.90;;;;;;5039573;28;20198;-71
2022/04/14 08:17:50;;;;;;;0.70;0.70;;;15.60;99.90;;;;;;5038570;28;20206;-70
2022/04/14 08:20:40;;;;;;;0.50;0.50;;;15.80;99.90;;;;;;5039263;28;20202;-72
2022/04/14 08:23:28;;;;;;;0.50;0.50;;;15.90;99.90;;;;;;5038448;28;20319;-70
2022/04/14 08:26:17;;;;;;;1.37;1.00;;;16.00;99.90;;;;;;5039664;28;20202;-69
2022/04/14 08:29:06;;;;;;;1.27;1.17;;;16.20;99.90;;;;;;5038220;28;20557;-69
2022/04/14 08:31:54;;;;;;;3.80;2.03;;;16.20;99.90;;;;;;5039232;28;20239;-70
2022/04/14 08:34:44;;;;;;;1.92;1.42;;;16.20;99.90;;;;;;5039432;28;20206;-71
2022/04/14 08:37:33;;;;;;;1.23;0.98;;;16.40;99.90;;;;;;5039700;28;20210;-72
2022/04/14 08:40:22;;;;;;;0.52;0.52;;;16.70;99.90;;;;;;5038677;28;20682;-71
2022/04/14 08:43:11;;;;;;;2.42;1.60;;;16.90;99.90;;;;;;5036338;28;20280;-72
2022/04/14 08:46:01;;;;;;;1.23;1.13;;;16.90;99.90;;;;;;5038026;28;20198;-74
2022/04/14 08:48:51;;;;;;;5.72;2.60;;;16.80;99.90;;;;;;5018419;28;20586;-72
2022/04/14 08:51:40;;;;;;;0.77;0.77;;;16.80;99.90;;;;;;5017010;28;20659;-73
2022/04/14 08:54:30;;;;;;;1.58;1.25;;;16.70;99.90;;;;;;5020085;28;20602;-71
2022/04/14 08:57:19;;;;;;;0.83;0.83;;;16.80;99.90;;;;;;5017848;28;20414;-72
2022/04/14 09:00:12;;;;;;;3.47;2.33;;;16.80;99.90;;;;;;5036985;28;20229;-71
2022/04/14 09:03:01;;;;;;;2.97;1.92;;;16.70;99.90;;;;;;5035045;28;20225;-71
2022/04/14 09:05:52;;;;;;;0.40;0.40;;;16.60;99.90;;;;;;5037364;28;20198;-72
2022/04/14 09:08:44;;;;;;;2.13;1.58;;;16.70;99.90;;;;;;5037765;28;20208;-71
2022/04/14 09:11:35;;;;;;;0.85;0.85;;;16.70;99.90;;;;;;5035541;28;20208;-72
2022/04/14 09:14:23;;;;;;;1.48;1.27;;;16.90;99.90;;;;;;5032820;28;20198;-69
2022/04/14 09:17:13;;;;;;;6.68;0.95;;;17.10;99.90;;;;;;5034877;28;20226;-72
2022/04/14 09:20:01;;;;;;;3.95;3.65;;;17.20;99.90;;;;;;5032255;28;20201;-72
2022/04/14 09:23:13;;;;;;;0.50;0.50;;;17.30;99.90;;;;;;5032208;28;20296;-74
2022/04/14 09:26:13;;;;;;;0.50;0.45;;;17.30;99.90;;;;;;5040460;28;20197;-73
2022/04/14 09:29:04;;;;;;;0.40;0.40;;;17.10;99.90;;;;;;5053063;28;20224;-72
2022/04/14 09:31:54;;;;;;;0.60;0.60;;;17.10;99.90;;;;;;5053738;28;20217;-70
2022/04/14 09:34:48;;;;;;;1.77;1.20;;;17.10;99.90;;;;;;5054998;28;20201;-72
2022/04/14 09:37:39;;;;;;;2.30;1.40;;;16.80;99.90;;;;;;5054358;28;20215;-69
2022/04/14 09:40:30;;;;;;;0.40;0.40;;;16.60;99.90;;;;;;5055285;28;20247;-72
2022/04/14 09:43:21;;;;;;;2.35;1.60;;;16.50;99.90;;;;;;5055636;28;20587;-74
2022/04/14 09:46:18;;;;;;;0.50;0.50;;;16.50;99.90;;;;;;5054520;28;20207;-71
2022/04/14 09:49:08;;;;;;;0.88;0.70;;;16.50;99.90;;;;;;5036167;28;20217;-70
2022/04/14 09:52:07;;;;;;;0.70;0.70;;;16.50;99.90;;;;;;5033656;28;20234;-73
2022/04/14 09:55:08;;;;;;;0.50;0.50;;;16.70;99.90;;;;;;5035834;28;20618;-73
2022/04/14 09:58:07;;;;;;;1.25;1.15;;;16.70;99.90;;;;;;5034917;28;20197;-73
2022/04/14 10:00:57;;;;;;;1.27;1.17;;;16.80;99.90;;;;;;5034719;28;20206;-70
2022/04/14 10:03:45;;;;;;;0.88;0.85;;;16.60;99.90;;;;;;5032696;28;20229;-75
2022/04/14 10:06:33;;;;;;;0.50;0.50;;;16.70;99.90;;;;;;5033772;28;20198;-72
2022/04/14 10:09:30;;;;;;;0.50;0.50;;;16.70;99.90;;;;;;5033990;28;21021;-71
2022/04/14 10:12:29;;;;;;;1.92;1.10;;;16.70;99.90;;;;;;5034661;28;20713;-72
2022/04/14 10:15:18;;;;;;;1.20;1.10;;;16.60;99.90;;;;;;5034772;28;20573;-71
2022/04/14 10:18:09;;;;;;;1.33;1.23;;;16.60;99.90;;;;;;5035840;28;20257;-72
2022/04/14 10:20:58;;;;;;;0.50;0.50;;;16.50;99.90;;;;;;5035312;28;20705;-70
2022/04/14 10:23:47;;;;;;;0.70;0.70;;;16.50;99.90;;;;;;5035029;28;20268;-72
2022/04/14 10:26:36;;;;;;;0.40;0.40;;;16.60;99.90;;;;;;5033731;28;20202;-74
2022/04/14 10:29:26;;;;;;;1.13;0.93;;;16.90;99.90;;;;;;5032454;28;20273;-73
2022/04/14 10:32:15;;;;;;;0.40;0.40;;;17.10;99.90;;;;;;5038217;28;20246;-72
2022/04/14 10:35:04;;;;;;;0.50;0.50;;;17.10;99.90;;;;;;5039239;28;20205;-72
2022/04/14 10:38:01;;;;;;;0.65;0.65;;;17.20;99.90;;;;;;5035962;28;20261;-73
2022/04/14 10:40:54;;;;;;;0.47;0.47;;;17.30;99.90;;;;;;5039026;28;20202;-70
2022/04/14 10:43:45;;;;;;;2.17;1.30;;;17.30;99.90;;;;;;5037825;28;20225;-70
2022/04/14 10:46:41;;;;;;;0.40;0.40;;;17.10;99.90;;;;;;5037070;28;20201;-72
2022/04/14 10:49:33;;;;;;;0.75;0.75;;;17.10;99.90;;;;;;5037697;28;20690;-71
2022/04/14 10:53:01;;;;;;;0.40;0.40;;;16.90;99.90;;;;;;5038202;28;20312;-71
2022/04/14 10:55:51;;;;;;;0.40;0.40;;;16.70;99.90;;;;;;5039458;28;20202;-70
2022/04/14 10:58:56;;;;;;;0.40;0.40;;;16.60;99.90;;;;;;5038644;28;20218;-73
2022/04/14 11:02:04;;;;;;;0.82;0.73;;;16.50;99.90;;;;;;5038687;28;20202;-70
2022/04/14 11:04:53;;;;;;;0.75;0.60;;;16.40;99.90;;;;;;5040535;28;20620;-71
2022/04/14 11:07:41;;;;;;;0.57;0.57;;;16.30;99.90;;;;;;5038950;28;20249;-71
2022/04/14 11:10:29;;;;;;;1.23;1.13;;;16.20;99.90;;;;;;5021347;28;20222;-72
2022/04/14 11:13:17;;;;;;;0.52;0.52;;;16.00;99.90;;;;;;5019662;28;20246;-72
2022/04/14 11:16:40;;;;;;;0.68;0.50;;;15.80;99.90;;;;;;5020973;28;20840;-69
2022/04/14 11:19:29;;;;;;;0.52;0.52;;;15.90;99.90;;;;;;5019269;28;20202;-73
2022/04/14 11:22:17;;;;;;;0.40;0.40;;;16.10;99.90;;;;;;5020196;28;20226;-72
2022/04/14 11:25:05;;;;;;;0.40;0.40;;;16.20;99.90;;;;;;5020497;28;20699;-72
2022/04/14 11:28:18;;;;;;;1.02;1.00;;;16.10;99.90;;;;;;5019583;28;20253;-73
2022/04/14 11:31:22;;;;;;;0.40;0.40;;;16.00;99.90;;;;;;5024586;28;20593;-71
2022/04/14 11:34:31;;;;;;;0.80;0.80;;;15.90;99.90;;;;;;5035084;28;20260;-69
2022/04/14 11:37:40;;;;;;;0.40;0.40;;;15.80;99.90;;;;;;5036106;28;20202;-69
2022/04/14 11:40:28;;;;;;;0.50;0.50;;;15.80;99.90;;;;;;5027809;28;20229;-71
2022/04/14 11:43:17;;;;;;;1.00;0.90;;;15.60;99.90;;;;;;5025598;28;20234;-70
2022/04/14 11:46:26;;;;;;;0.70;0.70;;;15.50;99.90;;;;;;5027055;28;20299;-70
2022/04/14 11:49:19;;;;;;;0.57;0.57;;;15.30;99.90;;;;;;5017259;28;20206;-69
2022/04/14 11:52:09;;;;;;;1.23;0.70;;;15.10;99.90;;;;;;5015861;28;20599;-70
2022/04/14 11:54:58;;;;;;;0.50;0.50;;;15.00;99.90;;;;;;5015563;28;20222;-68
2022/04/14 11:57:47;;;;;;;0.40;0.40;;;14.80;99.90;;;;;;5015809;28;20211;-69
2022/04/14 12:00:42;;;;;;;0.50;0.50;;;14.80;99.90;;;;;;5014477;28;20246;-69
2022/04/14 12:03:32;;;;;;;0.40;0.40;;;14.70;99.90;;;;;;5016464;28;20233;-69
2022/04/14 12:06:21;;;;;;;0.60;0.60;;;14.60;99.90;;;;;;5016303;28;20209;-69
2022/04/14 12:09:10;;;;;;;0.87;0.50;;;14.60;99.90;;;;;;5014745;28;20422;-67
2022/04/14 12:12:07;;;;;;;0.50;0.50;;;14.40;99.90;;;;;;5014947;28;20254;-71
2022/04/14 12:14:57;;;;;;;0.70;0.50;;;14.30;99.90;;;;;;5014505;28;20206;-69
2022/04/14 12:17:45;;;;;;;0.80;0.80;;;14.30;99.90;;;;;;5015539;28;20210;-69
2022/04/14 12:20:36;;;;;;;0.50;0.50;;;14.20;99.90;;;;;;5014570;28;20210;-68
2022/04/14 12:23:25;;;;;;;1.60;1.43;;;14.20;99.90;;;;;;5015036;28;20273;-68
2022/04/14 12:26:13;;;;;;;0.40;0.40;;;14.20;99.90;;;;;;5014847;28;20203;-69
2022/04/14 12:29:02;;;;;;;0.53;0.53;;;14.10;99.90;;;;;;5015628;28;20404;-68
2022/04/14 12:31:58;;;;;;;0.40;0.40;;;14.10;99.90;;;;;;5014644;28;20301;-69
2022/04/14 12:34:47;;;;;;;0.50;0.50;;;14.10;99.90;;;;;;5016066;28;20259;-67
2022/04/14 12:37:36;;;;;;;0.40;0.40;;;14.00;99.90;;;;;;5014803;28;20293;-69
2022/04/14 12:40:26;;;;;;;0.40;0.40;;;13.90;99.90;;;;;;5015561;28;20477;-69
2022/04/14 12:43:21;;;;;;;0.40;0.40;;;13.80;99.90;;;;;;5022345;28;20445;-69
2022/04/14 12:46:23;;;;;;;0.93;0.93;;;13.80;99.90;;;;;;5033824;28;20428;-69
2022/04/14 12:49:13;;;;;;;0.93;0.80;;;13.70;99.90;;;;;;5034027;28;20428;-70
2022/04/14 12:52:19;;;;;;;0.40;0.40;;;13.70;99.90;;;;;;5032675;28;20457;-69
2022/04/14 12:55:09;;;;;;;2.07;1.10;;;13.70;99.90;;;;;;5033597;28;20445;-68
2022/04/14 12:58:12;;;;;;;0.50;0.50;;;13.60;99.90;;;;;;5032874;28;20204;-69
2022/04/14 13:01:08;;;;;;;0.50;0.50;;;13.60;99.90;;;;;;5032709;28;20945;-69
2022/04/14 13:03:56;;;;;;;0.40;0.40;;;13.50;99.90;;;;;;5032344;28;20429;-70
2022/04/14 13:06:57;;;;;;;0.40;0.40;;;13.40;99.90;;;;;;5033269;28;20425;-68
2022/04/14 13:09:58;;;;;;;0.50;0.50;;;13.50;99.90;;;;;;5033008;28;20961;-69
2022/04/14 13:12:47;;;;;;;0.40;0.40;;;13.40;99.90;;;;;;5032695;28;20452;-69
2022/04/14 13:15:38;;;;;;;0.40;0.40;;;13.40;99.90;;;;;;5033033;28;21183;-69
2022/04/14 13:18:26;;;;;;;0.40;0.40;;;13.50;99.90;;;;;;5032951;28;20425;-70
2022/04/14 13:21:14;;;;;;;0.40;0.40;;;13.60;99.90;;;;;;5034381;28;20437;-68
2022/04/14 13:24:04;;;;;;;0.50;0.50;;;13.70;99.90;;;;;;5032502;28;20452;-69
2022/04/14 13:26:54;;;;;;;0.40;0.40;;;13.80;99.90;;;;;;5033814;28;20448;-68
2022/04/14 13:29:42;;;;;;;0.40;0.40;;;13.90;99.90;;;;;;5032108;28;20429;-69
2022/04/14 13:32:31;;;;;;;0.40;0.40;;;13.80;99.90;;;;;;5032629;28;21035;-69
2022/04/14 13:35:20;;;;;;;0.57;0.57;;;13.60;99.90;;;;;;5034251;28;20452;-68
2022/04/14 13:38:08;;;;;;;0.40;0.40;;;13.50;99.90;;;;;;5033123;28;20544;-69
2022/04/14 13:40:56;;;;;;;0.40;0.40;;;13.30;99.90;;;;;;5033856;28;20440;-69
2022/04/14 13:43:44;;;;;;;0.40;0.40;;;13.30;99.90;;;;;;5034759;28;20445;-69
2022/04/14 13:46:33;;;;;;;0.40;0.40;;;13.20;99.90;;;;;;5034650;28;20475;-68
2022/04/14 13:49:22;;;;;;;1.23;0.80;;;13.40;99.90;;;;;;5034786;28;20495;-70
2022/04/14 13:52:10;;;;;;;0.40;0.40;;;13.30;99.90;;;;;;5032654;28;20460;-69
2022/04/14 13:54:58;;;;;;;0.40;0.40;;;13.30;99.90;;;;;;5035058;28;20472;-69
2022/04/14 13:57:47;;;;;;;0.40;0.40;;;13.30;99.90;;;;;;5034487;28;20441;-68
2022/04/14 14:00:35;;;;;;;0.50;0.50;;;13.30;99.90;;;;;;5032423;28;20429;-71
2022/04/14 14:03:23;;;;;;;0.70;0.60;;;13.40;99.90;;;;;;5033109;28;20543;-68
2022/04/14 14:06:13;;;;;;;0.40;0.40;;;13.50;99.90;;;;;;5034705;28;20980;-69
2022/04/14 14:09:01;;;;;;;0.40;0.40;;;13.70;99.90;;;;;;5036073;28;20492;-68
2022/04/14 14:11:49;;;;;;;0.40;0.40;;;13.90;99.90;;;;;;5035857;28;20863;-69
2022/04/14 14:14:37;;;;;;;1.13;1.03;;;14.10;99.90;;;;;;5037040;28;20425;-68
2022/04/14 14:17:26;;;;;;;0.40;0.40;;;14.20;99.90;;;;;;5035348;28;20437;-67
2022/04/14 14:20:14;;;;;;;0.40;0.40;;;14.20;99.90;;;;;;5036118;28;20424;-69
2022/04/14 14:23:04;;;;;;;0.40;0.40;;;14.20;99.90;;;;;;5036091;28;20256;-69
2022/04/14 14:25:53;;;;;;;0.50;0.50;;;14.20;99.90;;;;;;5026135;28;20473;-69
2022/04/14 14:28:41;;;;;;;0.40;0.40;;;14.40;99.90;;;;;;5018412;28;20929;-69
2022/04/14 14:31:29;;;;;;;0.60;0.60;;;14.50;99.90;;;;;;5032331;28;20679;-68
2022/04/14 14:34:17;;;;;;;0.40;0.40;;;14.50;99.90;;;;;;5016766;28;21006;-68
2022/04/14 14:37:07;;;;;;;0.40;0.40;;;14.50;99.90;;;;;;5028581;28;20226;-69
2022/04/14 14:39:57;;;;;;;0.40;0.40;;;14.50;99.90;;;;;;5036202;28;20209;-68
2022/04/14 14:42:45;;;;;;;0.40;0.40;;;14.70;99.90;;;;;;5035765;28;20225;-67
2022/04/14 14:45:33;;;;;;;0.40;0.40;;;14.80;99.90;;;;;;5036474;28;20716;-69